Time;durP1;ratioP1;P1;durP2;ratioP2;P2;SDS_P1;SDS_P2;PMS_P1;PMS_P2;Temp;Humidity;BMP_temperature;BMP_pressure;BME280_temperature;BME280_humidity;BME280_pressure;Samples;Min_cycle;Max_cycle;Signal;HPM_P1;HPM_P2
2022/01/26 00:07:06;;;;;;;100.47;31.17;;;;;;;;;;5065726;28;20271;-88
2022/01/26 00:09:33;;;;;;;91.30;28.27;;;4.90;99.90;;;;;;5066172;28;20212;-87
2022/01/26 00:12:00;;;;;;;79.87;20.47;;;4.90;99.90;;;;;;5066588;28;20208;-88
2022/01/26 00:14:28;;;;;;;100.83;30.40;;;;;;;;;;5070205;28;20672;-88
2022/01/26 00:16:55;;;;;;;85.83;27.37;;;4.90;99.90;;;;;;5068533;28;20205;-88
2022/01/26 00:19:26;;;;;;;98.63;28.23;;;4.80;99.90;;;;;;5063650;28;20683;-88
2022/01/26 00:21:54;;;;;;;64.60;18.73;;;4.80;99.90;;;;;;5068453;28;20247;-89
2022/01/26 00:24:49;;;;;;;98.77;28.37;;;4.90;99.90;;;;;;5070563;28;20209;-88
2022/01/26 00:27:33;;;;;;;96.57;29.40;;;4.90;99.90;;;;;;5071508;28;20623;-89
2022/01/26 00:31:12;;;;;;;90.13;23.77;;;4.90;99.90;;;;;;5070957;28;20211;-89
2022/01/26 00:34:17;;;;;;;111.47;32.03;;;4.90;99.90;;;;;;5064799;28;20216;-86
2022/01/26 00:38:41;;;;;;;91.93;26.80;;;4.90;99.90;;;;;;5073119;28;20270;-90
2022/01/26 00:41:11;;;;;;;79.53;19.47;;;4.90;99.90;;;;;;5069005;28;20489;-86
2022/01/26 00:43:42;;;;;;;82.83;23.67;;;4.90;99.90;;;;;;5059170;28;21661;-86
2022/01/26 00:46:12;;;;;;;99.10;29.77;;;4.90;99.90;;;;;;5070635;28;20214;-88
2022/01/26 00:48:39;;;;;;;99.70;29.47;;;6.40;99.90;;;;;;5078937;28;20247;-87
2022/01/26 00:51:07;;;;;;;101.80;29.53;;;4.80;99.90;;;;;;5068405;28;20216;-87
2022/01/26 00:53:38;;;;;;;94.87;30.80;;;4.90;99.90;;;;;;5068159;28;20235;-87
2022/01/26 00:56:06;;;;;;;104.30;29.27;;;4.80;99.90;;;;;;5068754;28;20209;-87
2022/01/26 00:58:33;;;;;;;85.97;24.93;;;4.80;99.90;;;;;;5067872;28;20297;-87
2022/01/26 01:01:02;;;;;;;102.90;31.67;;;4.80;99.90;;;;;;5068399;28;20211;-87
2022/01/26 01:03:34;;;;;;;93.87;27.83;;;4.80;99.90;;;;;;5068197;28;20200;-87
2022/01/26 01:06:05;;;;;;;90.83;28.23;;;4.80;99.90;;;;;;5081022;28;20223;-87
2022/01/26 01:08:33;;;;;;;98.43;30.93;;;4.80;99.90;;;;;;5086293;28;20251;-86
2022/01/26 01:11:00;;;;;;;86.53;27.13;;;4.80;99.90;;;;;;5071386;28;20200;-87
2022/01/26 01:13:33;;;;;;;102.77;30.97;;;4.80;99.90;;;;;;5080969;28;20208;-87
2022/01/26 01:16:05;;;;;;;66.43;21.23;;;4.80;99.90;;;;;;5085480;28;20596;-87
2022/01/26 01:18:41;;;;;;;72.03;23.63;;;4.70;99.90;;;;;;5075799;28;20335;-85
2022/01/26 01:21:55;;;;;;;87.07;26.20;;;4.70;99.90;;;;;;5088064;28;20223;-87
2022/01/26 01:27:29;;;;;;;93.80;29.10;;;4.70;99.90;;;;;;5091850;28;20268;-87
2022/01/26 01:30:06;;;;;;;91.30;29.73;;;4.60;99.90;;;;;;5087111;28;20185;-88
2022/01/26 01:32:38;;;;;;;88.00;29.83;;;4.60;99.90;;;;;;5089905;28;20245;-87
2022/01/26 01:35:10;;;;;;;102.87;30.47;;;4.60;99.90;;;;;;5071953;28;20219;-85
2022/01/26 01:37:37;;;;;;;73.77;23.17;;;4.60;99.90;;;;;;5085207;28;20925;-85
2022/01/26 01:40:05;;;;;;;88.07;29.37;;;4.60;99.90;;;;;;5067823;28;20208;-85
2022/01/26 01:42:32;;;;;;;110.67;33.63;;;4.60;99.90;;;;;;5065480;28;20217;-85
2022/01/26 01:44:59;;;;;;;101.03;31.60;;;4.60;99.90;;;;;;5069134;28;20675;-85
2022/01/26 01:47:26;;;;;;;109.30;33.30;;;4.70;99.90;;;;;;5076313;28;20236;-85
2022/01/26 01:49:53;;;;;;;107.53;34.53;;;4.70;99.90;;;;;;5083694;28;20216;-85
2022/01/26 01:52:21;;;;;;;105.20;32.43;;;1.90;99.90;;;;;;5066063;28;20680;-85
2022/01/26 01:54:52;;;;;;;92.80;26.90;;;4.70;99.90;;;;;;5066523;28;20204;-86
2022/01/26 01:57:23;;;;;;;107.60;31.33;;;4.70;99.90;;;;;;5066412;28;20225;-85
2022/01/26 01:59:50;;;;;;;90.77;25.97;;;4.70;99.90;;;;;;5068330;28;20204;-85
2022/01/26 02:02:18;;;;;;;107.70;33.87;;;4.70;99.90;;;;;;5066631;28;20221;-86
2022/01/26 02:04:45;;;;;;;109.73;33.27;;;4.60;99.90;;;;;;5067280;28;20269;-85
2022/01/26 02:07:12;;;;;;;123.60;38.57;;;4.60;99.90;;;;;;5066746;28;20974;-85
2022/01/26 02:09:40;;;;;;;119.47;39.07;;;4.60;99.90;;;;;;5066094;28;20220;-86
2022/01/26 02:12:13;;;;;;;100.50;30.57;;;5.80;99.90;;;;;;5068855;28;20588;-86
2022/01/26 02:14:45;;;;;;;122.43;39.97;;;;;;;;;;5063163;28;20628;-86
2022/01/26 02:17:22;;;;;;;108.07;33.00;;;4.60;99.90;;;;;;5068773;28;20239;-86
2022/01/26 02:50:35;;;;;;;145.83;44.73;;;4.60;99.90;;;;;;5065586;28;20239;-86
2022/01/26 02:53:22;;;;;;;153.17;45.47;;;4.60;99.90;;;;;;5067340;28;20778;-85
2022/01/26 02:55:57;;;;;;;152.10;45.37;;;4.60;99.90;;;;;;5065708;28;20209;-86
2022/01/26 02:58:53;;;;;;;145.83;46.63;;;4.60;99.90;;;;;;5087710;28;20246;-86
2022/01/26 03:01:43;;;;;;;144.77;46.93;;;4.70;99.90;;;;;;5067891;28;20238;-86
2022/01/26 03:04:17;;;;;;;98.17;31.13;;;4.60;99.90;;;;;;5067840;28;20559;-86
2022/01/26 03:06:50;;;;;;;114.23;36.23;;;4.60;99.90;;;;;;5068129;28;20310;-86
2022/01/26 03:09:23;;;;;;;111.47;33.50;;;4.50;99.90;;;;;;5065563;28;20230;-85
2022/01/26 03:11:52;;;;;;;146.53;43.20;;;;;;;;;;5066117;28;20234;-86
2022/01/26 03:14:29;;;;;;;139.57;42.43;;;4.50;99.90;;;;;;5067969;28;20244;-85
2022/01/26 03:17:00;;;;;;;116.80;36.87;;;4.40;99.90;;;;;;5068436;28;20295;-86
2022/01/26 03:19:34;;;;;;;134.97;37.63;;;4.40;99.90;;;;;;5066870;28;20208;-86
2022/01/26 03:28:06;;;;;;;149.43;45.30;;;4.40;99.90;;;;;;5067504;28;20215;-85
2022/01/26 03:30:49;;;;;;;156.50;43.97;;;4.60;99.90;;;;;;5073018;28;20291;-86
2022/01/26 03:33:35;;;;;;;127.23;39.27;;;4.60;99.90;;;;;;5063911;28;20309;-86
2022/01/26 03:36:10;;;;;;;142.00;44.57;;;4.60;99.90;;;;;;5064717;28;20198;-85
2022/01/26 03:38:42;;;;;;;139.30;41.83;;;4.60;99.90;;;;;;5077931;28;20235;-86
2022/01/26 03:41:16;;;;;;;138.60;43.03;;;4.60;99.90;;;;;;5066064;28;20593;-86
2022/01/26 03:43:44;;;;;;;144.93;42.67;;;4.60;99.90;;;;;;5065021;28;20200;-86
2022/01/26 03:46:11;;;;;;;153.53;45.50;;;4.60;99.90;;;;;;5066778;28;20201;-86
2022/01/26 03:48:38;;;;;;;144.60;45.07;;;4.90;99.90;;;;;;5065289;28;20278;-86
2022/01/26 03:51:05;;;;;;;147.77;45.57;;;4.60;99.90;;;;;;5066137;28;20713;-85
2022/01/26 03:53:33;;;;;;;156.27;44.47;;;4.60;99.90;;;;;;5065267;28;20672;-86
2022/01/26 03:56:00;;;;;;;155.70;45.07;;;4.70;99.90;;;;;;5064772;28;20219;-86
2022/01/26 03:58:27;;;;;;;168.90;48.13;;;4.70;99.90;;;;;;5069283;28;20231;-86
2022/01/26 04:00:55;;;;;;;160.53;42.87;;;4.70;99.90;;;;;;5069814;28;20220;-87
2022/01/26 04:03:22;;;;;;;163.43;44.13;;;4.70;99.90;;;;;;5068570;28;20216;-86
2022/01/26 04:05:49;;;;;;;161.80;48.37;;;;;;;;;;5073255;28;20207;-86
2022/01/26 04:08:27;;;;;;;112.33;35.63;;;4.70;99.90;;;;;;5097091;28;20225;-86
2022/01/26 04:11:06;;;;;;;96.13;28.50;;;4.60;99.90;;;;;;5089831;28;20211;-88
2022/01/26 04:13:33;;;;;;;105.00;32.30;;;;;;;;;;5087619;28;20307;-86
2022/01/26 04:16:01;;;;;;;135.77;40.70;;;4.50;99.90;;;;;;5081431;28;20619;-86
2022/01/26 04:18:33;;;;;;;123.43;33.63;;;4.50;99.90;;;;;;5067864;28;20711;-87
2022/01/26 04:21:06;;;;;;;140.20;40.90;;;4.40;99.90;;;;;;5069581;28;20258;-86
2022/01/26 04:23:40;;;;;;;90.50;27.90;;;;;;;;;;5076820;28;20224;-86
2022/01/26 04:26:08;;;;;;;128.17;36.87;;;4.40;99.90;;;;;;5090278;28;20238;-86
2022/01/26 04:28:41;;;;;;;120.30;34.43;;;4.40;99.90;;;;;;5080303;28;20285;-86
2022/01/26 04:31:10;;;;;;;111.47;34.50;;;4.40;99.90;;;;;;5069631;28;20212;-85
2022/01/26 04:33:51;;;;;;;85.67;27.23;;;4.40;99.90;;;;;;5076132;28;20232;-86
2022/01/26 04:36:24;;;;;;;126.10;37.37;;;;;;;;;;5070258;28;20212;-86
2022/01/26 04:38:55;;;;;;;131.67;37.57;;;4.30;99.90;;;;;;5071018;28;20227;-86
2022/01/26 04:41:29;;;;;;;119.90;33.47;;;4.30;99.90;;;;;;5068389;28;20216;-86
2022/01/26 04:44:01;;;;;;;124.80;36.90;;;4.40;99.90;;;;;;5068727;28;20219;-86
2022/01/26 04:46:29;;;;;;;124.97;37.90;;;4.40;99.90;;;;;;5069247;28;20213;-86
2022/01/26 04:49:15;;;;;;;93.73;27.00;;;4.40;99.90;;;;;;5076908;28;20220;-87
2022/01/26 04:51:42;;;;;;;112.87;35.23;;;5.30;99.90;;;;;;5070853;28;20197;-86
2022/01/26 04:54:09;;;;;;;97.73;29.90;;;4.30;99.90;;;;;;5066909;28;20752;-86
2022/01/26 04:56:36;;;;;;;111.97;28.10;;;4.30;99.90;;;;;;5064421;28;20196;-86
2022/01/26 04:59:04;;;;;;;126.37;35.33;;;4.30;99.90;;;;;;5069796;28;20232;-86
2022/01/26 05:01:32;;;;;;;87.57;25.17;;;;;;;;;;5066687;28;20224;-86
2022/01/26 05:03:59;;;;;;;133.60;36.50;;;4.30;99.90;;;;;;5065504;28;20209;-86
2022/01/26 05:06:26;;;;;;;140.70;38.90;;;4.30;99.90;;;;;;5070513;28;20212;-86
2022/01/26 05:08:53;;;;;;;150.87;39.20;;;4.20;99.90;;;;;;5067433;28;20762;-86
2022/01/26 05:11:28;;;;;;;89.87;21.53;;;4.30;99.90;;;;;;5072639;28;20258;-86
2022/01/26 05:13:56;;;;;;;132.97;38.53;;;4.20;99.90;;;;;;5084925;28;20208;-86
2022/01/26 05:16:23;;;;;;;135.70;40.77;;;;;;;;;;5071705;28;20205;-86
2022/01/26 05:18:53;;;;;;;129.40;34.57;;;4.30;99.90;;;;;;5071806;28;20742;-86
2022/01/26 05:21:19;;;;;;;142.77;43.33;;;4.30;99.90;;;;;;5076451;28;20234;-85
2022/01/26 05:23:46;;;;;;;129.90;38.73;;;4.30;99.90;;;;;;5088009;28;20216;-85
2022/01/26 05:26:13;;;;;;;106.70;27.30;;;4.30;99.90;;;;;;5070728;28;20293;-86
2022/01/26 05:28:40;;;;;;;146.43;41.80;;;4.30;99.90;;;;;;5071859;28;20232;-86
2022/01/26 05:31:07;;;;;;;113.43;32.70;;;4.20;99.90;;;;;;5076945;28;20213;-86
2022/01/26 05:33:34;;;;;;;103.40;26.00;;;4.90;99.90;;;;;;5071981;28;20222;-86
2022/01/26 05:36:03;;;;;;;129.30;35.73;;;4.20;99.90;;;;;;5070339;28;20205;-85
2022/01/26 05:38:30;;;;;;;109.40;29.00;;;4.20;99.90;;;;;;5072888;28;20322;-85
2022/01/26 05:41:00;;;;;;;124.73;36.23;;;4.20;99.90;;;;;;5068001;28;20205;-86
2022/01/26 05:43:27;;;;;;;126.67;35.07;;;4.20;99.90;;;;;;5078262;28;20204;-86
2022/01/26 05:45:58;;;;;;;120.83;32.67;;;4.10;99.90;;;;;;5072015;28;20224;-86
2022/01/26 05:48:25;;;;;;;108.50;31.20;;;4.20;99.90;;;;;;5069720;28;20331;-86
2022/01/26 05:50:53;;;;;;;113.80;31.27;;;4.10;99.90;;;;;;5075420;28;20214;-85
2022/01/26 05:53:23;;;;;;;109.10;32.77;;;4.10;99.90;;;;;;5075059;28;20204;-86
2022/01/26 05:55:54;;;;;;;138.00;39.87;;;6.50;99.90;;;;;;5097229;28;20216;-87
2022/01/26 05:58:24;;;;;;;127.77;39.43;;;4.10;99.90;;;;;;5091223;28;20215;-87
2022/01/26 06:00:52;;;;;;;138.87;40.53;;;4.10;99.90;;;;;;5072404;28;20209;-86
2022/01/26 06:03:18;;;;;;;142.83;38.47;;;4.10;99.90;;;;;;5079651;28;20242;-86
2022/01/26 06:05:45;;;;;;;138.43;39.43;;;4.10;99.90;;;;;;5091474;28;20192;-86
2022/01/26 06:08:13;;;;;;;140.53;41.33;;;4.10;99.90;;;;;;5091434;28;20290;-85
2022/01/26 06:10:55;;;;;;;95.33;28.30;;;4.10;99.90;;;;;;5083817;28;20259;-86
2022/01/26 06:13:22;;;;;;;118.37;34.10;;;;;;;;;;5084348;28;20234;-86
2022/01/26 06:15:51;;;;;;;97.00;27.83;;;4.10;99.90;;;;;;5079207;28;20216;-85
2022/01/26 06:18:18;;;;;;;130.73;36.50;;;4.10;99.90;;;;;;5079640;28;20237;-85
2022/01/26 06:20:47;;;;;;;118.03;33.73;;;2.30;99.90;;;;;;5075389;28;20223;-85
2022/01/26 06:23:15;;;;;;;97.87;29.00;;;4.10;99.90;;;;;;5082920;28;20311;-87
2022/01/26 06:25:42;;;;;;;115.90;30.17;;;4.10;99.90;;;;;;5073875;28;20204;-86
2022/01/26 06:28:13;;;;;;;103.90;31.00;;;4.00;99.90;;;;;;5070339;28;20260;-86
2022/01/26 06:30:45;;;;;;;120.27;32.30;;;4.00;99.90;;;;;;5069862;28;20278;-87
2022/01/26 06:33:12;;;;;;;117.77;33.00;;;4.00;99.90;;;;;;5066736;28;20212;-85
2022/01/26 06:35:39;;;;;;;102.07;28.17;;;;;;;;;;5068375;28;20216;-86
2022/01/26 06:38:06;;;;;;;103.50;31.13;;;;;;;;;;5068856;28;20224;-86
2022/01/26 06:40:34;;;;;;;113.53;29.97;;;;;;;;;;5068912;28;20215;-86
2022/01/26 06:43:05;;;;;;;135.47;36.63;;;;;;;;;;5066600;28;20293;-86
2022/01/26 06:45:37;;;;;;;130.80;38.53;;;;;;;;;;5067230;28;20213;-87
2022/01/26 06:50:56;;;;;;;128.47;34.47;;;;;;;;;;5052228;28;20244;-87
2022/01/26 06:53:23;;;;;;;144.70;41.37;;;4.10;99.90;;;;;;5068148;28;20215;-86
2022/01/26 06:55:51;;;;;;;148.37;41.33;;;;;;;;;;5069670;28;20216;-88
2022/01/26 06:58:18;;;;;;;118.90;31.43;;;;;;;;;;5070234;28;20571;-89
2022/01/26 07:00:47;;;;;;;140.47;39.50;;;;;;;;;;5071330;28;20727;-89
2022/01/26 07:03:17;;;;;;;153.13;44.17;;;;;;;;;;5070632;28;20192;-92
2022/01/26 07:05:45;;;;;;;126.60;36.50;;;;;;;;;;5080065;28;20248;-90
2022/01/26 07:08:12;;;;;;;130.50;35.47;;;4.10;99.90;;;;;;5089034;28;20224;-89
2022/01/26 07:10:39;;;;;;;117.47;33.80;;;;;;;;;;5071278;28;20236;-91
2022/01/26 07:13:07;;;;;;;142.37;38.53;;;;;;;;;;5073758;28;20200;-89
2022/01/26 07:21:26;;;;;;;140.83;37.40;;;4.20;99.90;;;;;;5066726;28;20207;-85
2022/01/26 07:23:53;;;;;;;143.13;38.40;;;4.20;99.90;;;;;;5068418;28;20219;-85
2022/01/26 07:26:21;;;;;;;143.83;37.73;;;;;;;;;;5072607;28;20222;-85
2022/01/26 07:28:49;;;;;;;159.63;43.23;;;4.20;99.90;;;;;;5071110;28;20737;-84
2022/01/26 07:31:16;;;;;;;141.60;40.23;;;4.20;99.90;;;;;;5074907;28;20207;-85
2022/01/26 07:33:46;;;;;;;144.13;41.93;;;4.20;99.90;;;;;;5078909;28;20273;-85
2022/01/26 07:36:16;;;;;;;152.77;40.10;;;4.20;99.90;;;;;;5084768;28;20208;-87
2022/01/26 07:38:43;;;;;;;139.57;38.47;;;4.20;99.90;;;;;;5097099;28;20289;-87
2022/01/26 07:41:10;;;;;;;136.97;37.67;;;;;;;;;;5097299;28;20192;-88
2022/01/26 07:43:46;;;;;;;116.57;35.90;;;4.20;99.90;;;;;;5094394;28;20211;-86
2022/01/26 07:46:13;;;;;;;123.93;38.60;;;4.20;99.90;;;;;;5092457;28;20204;-86
2022/01/26 07:48:41;;;;;;;146.30;41.27;;;4.20;99.90;;;;;;5095796;28;20317;-88
2022/01/26 07:51:11;;;;;;;129.03;37.60;;;;;;;;;;5098163;28;20215;-87
2022/01/26 07:53:39;;;;;;;130.73;37.87;;;;;;;;;;5096106;28;20189;-87
2022/01/26 07:56:08;;;;;;;142.30;40.00;;;4.20;99.90;;;;;;5091878;28;20226;-88
2022/01/26 07:58:35;;;;;;;132.67;36.60;;;4.20;99.90;;;;;;5092437;28;20225;-88
2022/01/26 08:01:06;;;;;;;128.73;36.53;;;;;;;;;;5093488;28;20204;-88
2022/01/26 08:03:40;;;;;;;139.17;38.03;;;;;;;;;;5094701;28;20196;-86
2022/01/26 08:06:24;;;;;;;124.20;35.37;;;4.20;99.90;;;;;;5094966;28;20217;-86
2022/01/26 08:08:55;;;;;;;146.10;40.10;;;4.20;99.90;;;;;;5089047;28;20215;-88
2022/01/26 08:11:24;;;;;;;108.93;30.77;;;4.20;99.90;;;;;;5096781;28;20239;-86
2022/01/26 08:13:56;;;;;;;126.03;35.60;;;4.30;99.90;;;;;;5093515;28;20236;-89
2022/01/26 08:16:23;;;;;;;134.27;38.17;;;;;;;;;;5098145;28;20472;-86
2022/01/26 08:18:50;;;;;;;138.60;36.27;;;;;;;;;;5096187;28;20236;-87
2022/01/26 08:21:19;;;;;;;124.10;36.30;;;4.30;99.90;;;;;;5092015;28;20213;-87
2022/01/26 08:24:11;;;;;;;127.17;36.53;;;4.40;99.90;;;;;;5096287;28;20201;-86
2022/01/26 08:26:43;;;;;;;141.27;39.43;;;;;;;;;;5094281;28;20266;-86
2022/01/26 08:29:16;;;;;;;136.27;38.93;;;4.40;99.90;;;;;;5093869;28;20220;-86
2022/01/26 08:31:43;;;;;;;134.80;35.63;;;;;;;;;;5093330;28;20227;-88
2022/01/26 08:34:12;;;;;;;141.10;40.43;;;4.40;99.90;;;;;;5094435;28;20197;-87
2022/01/26 08:36:45;;;;;;;144.07;40.70;;;4.40;99.90;;;;;;5092306;28;20200;-87
2022/01/26 08:39:13;;;;;;;145.13;40.57;;;4.40;99.90;;;;;;5089592;28;20224;-87
2022/01/26 08:41:42;;;;;;;152.17;41.43;;;4.40;99.90;;;;;;5090395;28;20195;-88
2022/01/26 08:44:09;;;;;;;140.23;37.20;;;4.50;99.90;;;;;;5093481;28;20203;-87
2022/01/26 08:46:36;;;;;;;162.80;44.83;;;4.50;99.90;;;;;;5092114;28;20216;-86
2022/01/26 08:49:04;;;;;;;167.77;44.83;;;;;;;;;;5086903;28;20324;-89
2022/01/26 08:51:31;;;;;;;147.33;41.90;;;4.50;99.90;;;;;;5090284;28;20227;-88
2022/01/26 08:54:00;;;;;;;141.70;41.27;;;;;;;;;;5082077;28;20209;-87
2022/01/26 08:56:28;;;;;;;160.47;43.03;;;4.50;99.90;;;;;;5084967;28;20213;-88
2022/01/26 08:58:56;;;;;;;165.03;43.80;;;4.60;99.90;;;;;;5093087;28;20216;-88
2022/01/26 09:01:23;;;;;;;151.27;41.70;;;4.60;99.90;;;;;;5079440;28;20208;-88
2022/01/26 09:03:52;;;;;;;145.30;37.60;;;4.50;99.90;;;;;;5080124;28;20282;-88
2022/01/26 09:06:19;;;;;;;145.20;41.70;;;4.50;99.90;;;;;;5095927;28;20199;-89
2022/01/26 09:08:51;;;;;;;161.67;43.77;;;4.60;99.90;;;;;;5096545;28;20283;-86
2022/01/26 09:11:22;;;;;;;164.67;44.60;;;;;;;;;;5091911;28;20196;-87
2022/01/26 09:13:56;;;;;;;133.13;36.50;;;4.60;99.90;;;;;;5103430;28;20208;-87
2022/01/26 09:16:27;;;;;;;150.47;44.43;;;4.60;99.90;;;;;;5094426;28;20208;-87
2022/01/26 09:18:59;;;;;;;182.50;48.27;;;4.60;99.90;;;;;;5094651;28;20227;-87
2022/01/26 09:21:26;;;;;;;172.73;47.10;;;4.20;99.90;;;;;;5092271;28;20269;-87
2022/01/26 09:23:54;;;;;;;161.57;43.70;;;5.60;99.90;;;;;;5099667;28;20207;-87
2022/01/26 09:26:24;;;;;;;162.83;45.63;;;4.60;99.90;;;;;;5092510;28;20189;-87
2022/01/26 09:28:53;;;;;;;170.83;46.83;;;4.60;99.90;;;;;;5093736;28;20231;-87
2022/01/26 09:31:19;;;;;;;137.10;38.10;;;4.70;99.90;;;;;;5097212;28;20225;-87
2022/01/26 09:33:46;;;;;;;154.77;44.73;;;4.70;99.90;;;;;;5093195;28;20177;-87
2022/01/26 09:36:13;;;;;;;158.43;45.63;;;4.70;99.90;;;;;;5091502;28;20211;-86
2022/01/26 09:38:41;;;;;;;129.00;37.17;;;4.70;99.90;;;;;;5098998;28;20201;-86
2022/01/26 09:41:08;;;;;;;139.73;42.40;;;4.70;99.90;;;;;;5094728;28;20204;-87
2022/01/26 09:43:38;;;;;;;154.37;43.90;;;;;;;;;;5091424;28;20263;-87
2022/01/26 09:46:09;;;;;;;150.33;43.20;;;;;;;;;;5094014;28;20197;-87
2022/01/26 09:48:38;;;;;;;152.83;43.83;;;;;;;;;;5087625;28;20215;-86
2022/01/26 09:51:05;;;;;;;171.50;46.47;;;;;;;;;;5093723;28;20235;-87
2022/01/26 09:53:35;;;;;;;154.10;44.47;;;4.70;99.90;;;;;;5093216;28;20216;-87
2022/01/26 09:56:10;;;;;;;153.83;41.77;;;4.70;99.90;;;;;;5091465;28;20253;-88
2022/01/26 09:58:37;;;;;;;158.23;41.63;;;4.70;99.90;;;;;;5093411;28;20453;-87
2022/01/26 10:01:06;;;;;;;155.00;41.33;;;4.70;99.90;;;;;;5093446;28;20189;-88
2022/01/26 10:03:45;;;;;;;147.60;41.57;;;4.70;99.90;;;;;;5096351;28;20287;-87
2022/01/26 10:06:22;;;;;;;141.63;40.30;;;4.70;99.90;;;;;;5091905;28;20201;-86
2022/01/26 10:17:29;;;;;;;152.80;43.17;;;4.80;99.90;;;;;;5107927;28;20235;-88
2022/01/26 10:20:09;;;;;;;153.40;42.40;;;4.80;99.90;;;;;;5088050;28;20188;-87
2022/01/26 10:22:38;;;;;;;145.40;40.30;;;;;;;;;;5092267;28;20252;-88
2022/01/26 10:25:13;;;;;;;155.03;41.90;;;4.90;99.90;;;;;;5091956;28;20192;-86
2022/01/26 10:28:03;;;;;;;137.63;39.87;;;4.90;99.90;;;;;;5094667;28;20206;-88
2022/01/26 10:30:44;;;;;;;146.83;40.33;;;4.80;99.90;;;;;;5094242;28;20243;-88
2022/01/26 10:33:18;;;;;;;149.13;42.30;;;4.80;99.90;;;;;;5097144;28;20204;-88
2022/01/26 10:35:49;;;;;;;140.80;41.77;;;;;;;;;;5095585;28;20176;-88
2022/01/26 10:38:16;;;;;;;153.93;41.93;;;4.80;99.90;;;;;;5097831;28;20226;-87
2022/01/26 10:40:43;;;;;;;146.13;35.77;;;;;;;;;;5094900;28;20189;-88
2022/01/26 10:43:17;;;;;;;145.37;41.40;;;4.80;99.90;;;;;;5100242;28;20273;-88
2022/01/26 10:45:55;;;;;;;147.07;38.83;;;4.80;99.90;;;;;;5094674;28;20204;-88
2022/01/26 10:48:31;;;;;;;128.63;34.90;;;4.90;99.90;;;;;;5095263;28;20217;-87
2022/01/26 10:54:21;;;;;;;150.67;37.17;;;4.90;99.90;;;;;;5086892;28;20258;-87
2022/01/26 10:56:50;;;;;;;149.00;41.60;;;4.90;99.90;;;;;;5092707;28;20223;-87
2022/01/26 10:59:18;;;;;;;136.10;34.10;;;;;;;;;;5093699;28;20262;-87
2022/01/26 11:02:02;;;;;;;137.47;39.93;;;4.90;99.90;;;;;;5096684;28;20651;-87
2022/01/26 11:04:34;;;;;;;130.47;36.37;;;5.00;99.90;;;;;;5099567;28;20193;-88
2022/01/26 11:07:17;;;;;;;142.87;39.47;;;5.00;99.90;;;;;;5093815;28;20257;-88
2022/01/26 11:09:47;;;;;;;136.53;37.77;;;5.10;99.90;;;;;;5094320;28;20200;-87
2022/01/26 11:12:35;;;;;;;146.03;39.43;;;5.10;99.90;;;;;;5095177;28;20944;-88
2022/01/26 11:15:07;;;;;;;141.90;38.37;;;5.10;99.90;;;;;;5097314;28;20262;-89
2022/01/26 11:17:37;;;;;;;84.50;24.03;;;5.00;99.90;;;;;;5082726;28;20219;-89
2022/01/26 11:20:18;;;;;;;74.37;22.33;;;5.00;99.90;;;;;;5095825;28;20181;-89
2022/01/26 11:22:54;;;;;;;118.80;33.57;;;5.00;99.90;;;;;;5104788;28;20322;-89
2022/01/26 11:25:23;;;;;;;113.80;33.30;;;5.10;99.90;;;;;;5095616;28;20192;-88
2022/01/26 11:27:52;;;;;;;94.90;28.97;;;5.10;99.90;;;;;;5094614;28;20212;-88
2022/01/26 11:30:22;;;;;;;97.00;28.17;;;5.10;99.90;;;;;;5093492;28;20227;-89
2022/01/26 11:32:57;;;;;;;73.40;23.90;;;5.10;99.90;;;;;;5087530;28;20184;-88
2022/01/26 11:35:27;;;;;;;110.07;33.93;;;5.00;99.90;;;;;;5093529;28;20311;-90
2022/01/26 11:38:13;;;;;;;93.57;30.63;;;5.10;99.90;;;;;;5089904;28;20225;-89
2022/01/26 11:46:59;;;;;;;104.97;31.60;;;5.10;99.90;;;;;;5081126;28;20695;-88
2022/01/26 11:49:46;;;;;;;95.60;26.90;;;5.10;99.90;;;;;;5074839;28;20208;-88
2022/01/26 11:52:21;;;;;;;81.80;25.17;;;5.10;99.90;;;;;;5073318;28;20715;-88
2022/01/26 11:54:52;;;;;;;109.73;32.33;;;5.10;99.90;;;;;;5071688;28;20204;-88
2022/01/26 11:57:36;;;;;;;129.13;38.43;;;5.10;99.90;;;;;;5071415;28;20764;-88
2022/01/26 12:00:09;;;;;;;120.23;35.23;;;5.10;99.90;;;;;;5068854;28;20189;-88
2022/01/26 12:02:53;;;;;;;104.17;31.83;;;5.20;99.90;;;;;;5093845;28;20205;-87
2022/01/26 12:05:23;;;;;;;108.27;33.13;;;5.20;99.90;;;;;;5072689;28;20221;-87
2022/01/26 12:07:51;;;;;;;87.90;23.87;;;5.30;99.90;;;;;;5070176;28;20233;-89
2022/01/26 12:10:28;;;;;;;132.47;36.33;;;5.30;99.90;;;;;;5069114;28;20298;-89
2022/01/26 12:13:03;;;;;;;102.57;29.30;;;5.40;99.90;;;;;;5069224;28;20206;-88
2022/01/26 12:15:33;;;;;;;125.60;35.10;;;5.40;99.90;;;;;;5079685;28;20215;-89
2022/01/26 12:18:16;;;;;;;85.70;25.13;;;5.40;99.90;;;;;;5078548;28;20225;-89
2022/01/26 12:32:25;;;;;;;107.50;28.63;;;5.40;99.90;;;;;;5072082;28;20219;-89
2022/01/26 12:35:01;;;;;;;129.80;37.57;;;5.40;99.90;;;;;;5071998;28;20186;-90
2022/01/26 12:37:40;;;;;;;106.77;30.53;;;5.40;99.90;;;;;;5071851;28;20232;-89
2022/01/26 12:43:02;;;;;;;120.77;36.23;;;5.40;99.90;;;;;;5077528;28;20446;-89
2022/01/26 12:45:29;;;;;;;114.47;33.37;;;5.50;99.90;;;;;;5080218;28;20197;-88
2022/01/26 12:48:00;;;;;;;120.57;32.27;;;;;;;;;;5080652;28;20238;-88
2022/01/26 12:50:28;;;;;;;127.80;33.40;;;5.60;99.90;;;;;;5082818;28;20212;-88
2022/01/26 12:52:57;;;;;;;125.23;35.83;;;5.50;99.90;;;;;;5073483;28;20201;-89
2022/01/26 12:55:26;;;;;;;125.63;35.93;;;5.60;99.90;;;;;;5087477;28;20223;-89
2022/01/26 12:57:55;;;;;;;126.53;35.97;;;5.70;99.90;;;;;;5080431;28;20733;-87
2022/01/26 13:00:24;;;;;;;111.83;34.00;;;;;;;;;;5082200;28;20204;-89
2022/01/26 13:02:52;;;;;;;105.90;32.83;;;5.70;99.90;;;;;;5091749;28;20209;-91
2022/01/26 13:05:24;;;;;;;102.60;29.33;;;5.70;99.90;;;;;;5092285;28;20197;-90
2022/01/26 13:08:02;;;;;;;111.93;34.53;;;5.70;99.90;;;;;;5096502;28;20211;-90
2022/01/26 13:10:30;;;;;;;106.40;32.23;;;5.60;99.90;;;;;;5097634;28;20256;-90
2022/01/26 13:13:09;;;;;;;100.43;31.43;;;5.60;99.90;;;;;;5093227;28;20202;-88
2022/01/26 13:15:39;;;;;;;115.93;34.37;;;5.60;99.90;;;;;;5072973;28;20217;-89
2022/01/26 13:18:19;;;;;;;119.23;34.77;;;5.60;99.90;;;;;;5070940;28;20542;-87
2022/01/26 13:21:06;;;;;;;124.20;34.93;;;5.60;99.90;;;;;;5075563;28;20295;-88
2022/01/26 13:23:45;;;;;;;120.60;33.03;;;;;;;;;;5070874;28;20586;-89
2022/01/26 13:26:20;;;;;;;100.27;25.70;;;;;;;;;;5072202;28;20684;-89
2022/01/26 13:29:01;;;;;;;118.67;33.83;;;5.60;99.90;;;;;;5070096;28;20235;-88
2022/01/26 13:37:26;;;;;;;142.17;36.30;;;5.60;99.90;;;;;;5056595;28;20559;-76
2022/01/26 13:40:07;;;;;;;135.63;37.27;;;5.60;99.90;;;;;;5106567;28;20434;-75
2022/01/26 13:48:38;;;;;;;144.07;36.07;;;5.60;99.90;;;;;;5108516;27;20226;-75
2022/01/26 13:51:13;;;;;;;141.07;35.70;;;5.60;99.90;;;;;;5099944;28;20263;-75
2022/01/26 13:53:52;;;;;;;134.43;34.83;;;5.60;99.90;;;;;;5099453;28;20214;-76
2022/01/26 13:56:29;;;;;;;152.23;38.37;;;5.60;99.90;;;;;;5101211;28;20659;-75
2022/01/26 13:59:02;;;;;;;135.33;35.33;;;;;;;;;;5102464;28;20227;-76
2022/01/26 14:01:29;;;;;;;138.93;36.70;;;;;;;;;;5101712;28;20241;-76
2022/01/26 14:04:02;;;;;;;146.40;35.63;;;5.60;99.90;;;;;;5095251;28;20219;-76
2022/01/26 14:06:30;;;;;;;139.60;34.90;;;5.60;99.90;;;;;;5097414;28;20295;-76
2022/01/26 14:08:57;;;;;;;146.07;37.40;;;5.60;99.90;;;;;;5100971;28;20231;-75
2022/01/26 14:11:24;;;;;;;152.00;35.53;;;5.50;99.90;;;;;;5103299;27;20208;-76
2022/01/26 14:13:55;;;;;;;136.63;35.17;;;5.50;99.90;;;;;;5103137;28;20205;-77
2022/01/26 14:16:23;;;;;;;140.20;36.10;;;5.40;99.90;;;;;;5099452;28;20335;-76
2022/01/26 14:19:05;;;;;;;127.27;33.20;;;5.50;99.90;;;;;;5104847;27;20227;-77
2022/01/26 14:21:54;;;;;;;134.17;32.03;;;5.40;99.90;;;;;;5100408;28;20210;-77
2022/01/26 14:24:29;;;;;;;140.47;35.57;;;;;;;;;;5111899;28;20196;-77
2022/01/26 14:26:59;;;;;;;121.43;31.53;;;5.40;99.90;;;;;;5098971;28;20242;-77
2022/01/26 14:29:40;;;;;;;126.13;31.23;;;5.40;99.90;;;;;;5091487;28;20663;-77
2022/01/26 14:35:19;;;;;;;138.60;33.60;;;5.40;99.90;;;;;;5075082;27;20298;-73
2022/01/26 14:40:57;;;;;;;131.33;32.07;;;5.40;99.90;;;;;;5100817;28;20203;-78
2022/01/26 14:52:06;;;;;;;139.80;33.77;;;;;;;;;;5088376;28;20203;-76
2022/01/26 15:00:17;;;;;;;124.10;30.10;;;5.40;99.90;;;;;;5081749;28;20202;-76
2022/01/26 15:30:46;;;;;;;141.87;36.40;;;;;;;;;;5034761;28;20231;-78
2022/01/26 15:33:34;;;;;;;130.03;32.53;;;;;;;;;;5087633;28;20285;-78
2022/01/26 15:41:50;;;;;;;134.53;34.70;;;5.20;99.90;;;;;;5088446;28;20226;-76